sensor_id;sensor_type;location;lat;lon;timestamp;P1;durP1;ratioP1;P2;durP2;ratioP2
73100;SDS011;61288;53.446;-2.266;2024-01-11T00:00:08;9.07;;;1.60;;
73100;SDS011;61288;53.446;-2.266;2024-01-11T00:02:34;5.68;;;1.95;;
73100;SDS011;61288;53.446;-2.266;2024-01-11T00:05:00;8.05;;;1.65;;
73100;SDS011;61288;53.446;-2.266;2024-01-11T00:07:25;5.18;;;1.35;;
73100;SDS011;61288;53.446;-2.266;2024-01-11T00:09:51;7.57;;;2.00;;
73100;SDS011;61288;53.446;-2.266;2024-01-11T00:12:16;9.60;;;2.00;;
73100;SDS011;61288;53.446;-2.266;2024-01-11T00:14:42;5.93;;;1.40;;
73100;SDS011;61288;53.446;-2.266;2024-01-11T00:17:07;3.95;;;1.40;;
73100;SDS011;61288;53.446;-2.266;2024-01-11T00:19:33;5.70;;;1.67;;
73100;SDS011;61288;53.446;-2.266;2024-01-11T00:21:58;5.75;;;1.60;;
73100;SDS011;61288;53.446;-2.266;2024-01-11T00:24:24;5.68;;;1.40;;
73100;SDS011;61288;53.446;-2.266;2024-01-11T00:26:49;6.22;;;1.50;;
73100;SDS011;61288;53.446;-2.266;2024-01-11T00:29:15;6.97;;;1.52;;
73100;SDS011;61288;53.446;-2.266;2024-01-11T00:34:33;6.90;;;1.50;;
73100;SDS011;61288;53.446;-2.266;2024-01-11T00:37:01;8.48;;;1.50;;
73100;SDS011;61288;53.446;-2.266;2024-01-11T00:39:26;6.45;;;1.50;;
73100;SDS011;61288;53.446;-2.266;2024-01-11T00:41:52;7.82;;;1.60;;
73100;SDS011;61288;53.446;-2.266;2024-01-11T00:44:17;6.40;;;1.70;;
73100;SDS011;61288;53.446;-2.266;2024-01-11T00:46:43;6.82;;;1.60;;
73100;SDS011;61288;53.446;-2.266;2024-01-11T00:49:10;7.95;;;1.55;;
73100;SDS011;61288;53.446;-2.266;2024-01-11T00:51:36;6.18;;;1.60;;
73100;SDS011;61288;53.446;-2.266;2024-01-11T00:54:01;8.07;;;1.48;;
73100;SDS011;61288;53.446;-2.266;2024-01-11T00:56:28;6.70;;;1.52;;
73100;SDS011;61288;53.446;-2.266;2024-01-11T00:58:53;7.85;;;1.70;;
73100;SDS011;61288;53.446;-2.266;2024-01-11T01:01:19;9.98;;;1.60;;
73100;SDS011;61288;53.446;-2.266;2024-01-11T01:03:46;7.68;;;1.52;;
73100;SDS011;61288;53.446;-2.266;2024-01-11T01:06:11;12.90;;;2.53;;
73100;SDS011;61288;53.446;-2.266;2024-01-11T01:08:38;6.95;;;1.42;;
73100;SDS011;61288;53.446;-2.266;2024-01-11T01:11:03;5.38;;;1.42;;
73100;SDS011;61288;53.446;-2.266;2024-01-11T01:13:29;14.23;;;2.05;;
73100;SDS011;61288;53.446;-2.266;2024-01-11T01:15:55;4.97;;;1.40;;
73100;SDS011;61288;53.446;-2.266;2024-01-11T01:18:20;6.03;;;1.50;;
73100;SDS011;61288;53.446;-2.266;2024-01-11T01:20:46;6.22;;;1.77;;
73100;SDS011;61288;53.446;-2.266;2024-01-11T01:23:12;6.97;;;1.70;;
73100;SDS011;61288;53.446;-2.266;2024-01-11T01:25:38;11.43;;;1.80;;
73100;SDS011;61288;53.446;-2.266;2024-01-11T01:28:03;7.10;;;1.50;;
73100;SDS011;61288;53.446;-2.266;2024-01-11T01:30:29;6.03;;;1.65;;
73100;SDS011;61288;53.446;-2.266;2024-01-11T01:32:55;5.28;;;1.63;;
73100;SDS011;61288;53.446;-2.266;2024-01-11T01:35:21;6.97;;;1.40;;
73100;SDS011;61288;53.446;-2.266;2024-01-11T01:37:46;8.80;;;1.67;;
73100;SDS011;61288;53.446;-2.266;2024-01-11T01:40:12;6.82;;;1.98;;
73100;SDS011;61288;53.446;-2.266;2024-01-11T01:42:42;7.30;;;1.58;;
73100;SDS011;61288;53.446;-2.266;2024-01-11T01:45:09;5.30;;;1.65;;
73100;SDS011;61288;53.446;-2.266;2024-01-11T01:47:34;6.82;;;1.48;;
73100;SDS011;61288;53.446;-2.266;2024-01-11T01:50:01;9.50;;;1.65;;
73100;SDS011;61288;53.446;-2.266;2024-01-11T01:52:29;5.10;;;1.52;;
73100;SDS011;61288;53.446;-2.266;2024-01-11T01:54:55;8.02;;;1.55;;
73100;SDS011;61288;53.446;-2.266;2024-01-11T01:57:23;3.90;;;1.30;;
73100;SDS011;61288;53.446;-2.266;2024-01-11T01:59:49;4.68;;;1.25;;
73100;SDS011;61288;53.446;-2.266;2024-01-11T02:04:46;9.98;;;1.70;;
73100;SDS011;61288;53.446;-2.266;2024-01-11T02:07:12;4.72;;;1.55;;
73100;SDS011;61288;53.446;-2.266;2024-01-11T02:09:39;9.25;;;1.45;;
73100;SDS011;61288;53.446;-2.266;2024-01-11T02:12:06;4.35;;;1.17;;
73100;SDS011;61288;53.446;-2.266;2024-01-11T02:14:39;4.38;;;1.40;;
73100;SDS011;61288;53.446;-2.266;2024-01-11T02:17:05;3.53;;;1.35;;
73100;SDS011;61288;53.446;-2.266;2024-01-11T02:19:31;6.07;;;1.70;;
73100;SDS011;61288;53.446;-2.266;2024-01-11T02:21:59;6.82;;;1.20;;
73100;SDS011;61288;53.446;-2.266;2024-01-11T02:24:30;3.65;;;1.08;;
73100;SDS011;61288;53.446;-2.266;2024-01-11T02:26:59;7.18;;;1.30;;
73100;SDS011;61288;53.446;-2.266;2024-01-11T02:29:26;5.90;;;1.40;;
73100;SDS011;61288;53.446;-2.266;2024-01-11T02:31:53;4.28;;;1.25;;
73100;SDS011;61288;53.446;-2.266;2024-01-11T02:34:20;2.58;;;1.25;;
73100;SDS011;61288;53.446;-2.266;2024-01-11T02:36:46;2.33;;;1.20;;
73100;SDS011;61288;53.446;-2.266;2024-01-11T02:39:13;3.83;;;1.15;;
73100;SDS011;61288;53.446;-2.266;2024-01-11T02:41:41;3.08;;;1.38;;
73100;SDS011;61288;53.446;-2.266;2024-01-11T02:44:08;6.68;;;1.63;;
73100;SDS011;61288;53.446;-2.266;2024-01-11T02:46:34;4.68;;;1.23;;
73100;SDS011;61288;53.446;-2.266;2024-01-11T02:49:00;3.38;;;1.27;;
73100;SDS011;61288;53.446;-2.266;2024-01-11T02:51:25;5.10;;;1.38;;
73100;SDS011;61288;53.446;-2.266;2024-01-11T02:53:50;3.38;;;1.05;;
73100;SDS011;61288;53.446;-2.266;2024-01-11T02:56:16;10.25;;;1.20;;
73100;SDS011;61288;53.446;-2.266;2024-01-11T02:58:41;1.92;;;0.93;;
73100;SDS011;61288;53.446;-2.266;2024-01-11T03:01:07;2.85;;;1.20;;
73100;SDS011;61288;53.446;-2.266;2024-01-11T03:03:32;4.32;;;1.20;;
73100;SDS011;61288;53.446;-2.266;2024-01-11T03:05:58;4.30;;;1.10;;
73100;SDS011;61288;53.446;-2.266;2024-01-11T03:08:23;3.55;;;1.35;;
73100;SDS011;61288;53.446;-2.266;2024-01-11T03:10:49;3.80;;;1.00;;
73100;SDS011;61288;53.446;-2.266;2024-01-11T03:13:14;4.50;;;1.10;;
73100;SDS011;61288;53.446;-2.266;2024-01-11T03:15:40;4.20;;;0.93;;
73100;SDS011;61288;53.446;-2.266;2024-01-11T03:18:05;1.95;;;1.02;;
73100;SDS011;61288;53.446;-2.266;2024-01-11T03:20:33;5.47;;;1.30;;
73100;SDS011;61288;53.446;-2.266;2024-01-11T03:22:59;3.92;;;1.20;;
73100;SDS011;61288;53.446;-2.266;2024-01-11T03:25:25;2.95;;;1.30;;
73100;SDS011;61288;53.446;-2.266;2024-01-11T03:27:50;4.65;;;1.25;;
73100;SDS011;61288;53.446;-2.266;2024-01-11T03:30:16;2.47;;;1.00;;
73100;SDS011;61288;53.446;-2.266;2024-01-11T03:32:41;5.18;;;1.58;;
73100;SDS011;61288;53.446;-2.266;2024-01-11T03:35:07;5.68;;;1.20;;
73100;SDS011;61288;53.446;-2.266;2024-01-11T03:37:33;4.05;;;1.30;;
73100;SDS011;61288;53.446;-2.266;2024-01-11T03:40:03;2.75;;;1.13;;
73100;SDS011;61288;53.446;-2.266;2024-01-11T03:42:28;2.53;;;1.15;;
73100;SDS011;61288;53.446;-2.266;2024-01-11T03:44:54;4.68;;;1.60;;
73100;SDS011;61288;53.446;-2.266;2024-01-11T03:47:20;3.65;;;1.23;;
73100;SDS011;61288;53.446;-2.266;2024-01-11T03:49:45;4.70;;;1.20;;
73100;SDS011;61288;53.446;-2.266;2024-01-11T03:52:11;2.83;;;1.20;;
73100;SDS011;61288;53.446;-2.266;2024-01-11T03:54:36;4.72;;;1.17;;
73100;SDS011;61288;53.446;-2.266;2024-01-11T03:57:02;4.13;;;1.20;;
73100;SDS011;61288;53.446;-2.266;2024-01-11T03:59:28;3.00;;;1.13;;
73100;SDS011;61288;53.446;-2.266;2024-01-11T04:01:53;3.92;;;1.38;;
73100;SDS011;61288;53.446;-2.266;2024-01-11T04:04:19;3.60;;;1.33;;
73100;SDS011;61288;53.446;-2.266;2024-01-11T04:06:45;4.43;;;1.20;;
73100;SDS011;61288;53.446;-2.266;2024-01-11T04:09:10;2.97;;;1.08;;
73100;SDS011;61288;53.446;-2.266;2024-01-11T04:11:36;3.53;;;1.40;;
73100;SDS011;61288;53.446;-2.266;2024-01-11T04:14:01;4.15;;;1.33;;
73100;SDS011;61288;53.446;-2.266;2024-01-11T04:16:27;5.43;;;1.20;;
73100;SDS011;61288;53.446;-2.266;2024-01-11T04:18:53;3.83;;;1.20;;
73100;SDS011;61288;53.446;-2.266;2024-01-11T04:23:47;4.85;;;1.20;;
73100;SDS011;61288;53.446;-2.266;2024-01-11T04:26:13;3.65;;;1.13;;
73100;SDS011;61288;53.446;-2.266;2024-01-11T04:28:40;4.85;;;1.40;;
73100;SDS011;61288;53.446;-2.266;2024-01-11T04:31:07;4.57;;;1.50;;
73100;SDS011;61288;53.446;-2.266;2024-01-11T04:33:34;6.80;;;2.22;;
73100;SDS011;61288;53.446;-2.266;2024-01-11T04:36:00;4.18;;;1.08;;
73100;SDS011;61288;53.446;-2.266;2024-01-11T04:38:25;5.70;;;1.40;;
73100;SDS011;61288;53.446;-2.266;2024-01-11T04:40:53;3.67;;;1.05;;
73100;SDS011;61288;53.446;-2.266;2024-01-11T04:43:19;7.47;;;1.40;;
73100;SDS011;61288;53.446;-2.266;2024-01-11T04:45:44;1.48;;;1.10;;
73100;SDS011;61288;53.446;-2.266;2024-01-11T04:48:10;4.55;;;1.45;;
73100;SDS011;61288;53.446;-2.266;2024-01-11T04:50:35;5.78;;;1.45;;
73100;SDS011;61288;53.446;-2.266;2024-01-11T04:53:02;6.47;;;1.20;;
73100;SDS011;61288;53.446;-2.266;2024-01-11T04:55:28;3.20;;;1.30;;
73100;SDS011;61288;53.446;-2.266;2024-01-11T04:57:53;4.18;;;1.40;;
73100;SDS011;61288;53.446;-2.266;2024-01-11T05:00:19;6.93;;;1.05;;
73100;SDS011;61288;53.446;-2.266;2024-01-11T05:02:45;3.30;;;1.13;;
73100;SDS011;61288;53.446;-2.266;2024-01-11T05:05:11;8.95;;;1.42;;
73100;SDS011;61288;53.446;-2.266;2024-01-11T05:07:37;5.43;;;1.95;;
73100;SDS011;61288;53.446;-2.266;2024-01-11T05:10:03;4.15;;;1.30;;
73100;SDS011;61288;53.446;-2.266;2024-01-11T05:12:29;4.10;;;1.30;;
73100;SDS011;61288;53.446;-2.266;2024-01-11T05:14:54;7.50;;;1.45;;
73100;SDS011;61288;53.446;-2.266;2024-01-11T05:17:20;3.63;;;1.30;;
73100;SDS011;61288;53.446;-2.266;2024-01-11T05:19:45;2.28;;;1.00;;
73100;SDS011;61288;53.446;-2.266;2024-01-11T05:22:11;4.43;;;1.30;;
73100;SDS011;61288;53.446;-2.266;2024-01-11T05:24:36;3.03;;;1.20;;
73100;SDS011;61288;53.446;-2.266;2024-01-11T05:27:02;7.05;;;1.27;;
73100;SDS011;61288;53.446;-2.266;2024-01-11T05:29:28;5.80;;;1.35;;
73100;SDS011;61288;53.446;-2.266;2024-01-11T05:31:53;7.15;;;1.30;;
73100;SDS011;61288;53.446;-2.266;2024-01-11T05:34:19;4.13;;;1.15;;
73100;SDS011;61288;53.446;-2.266;2024-01-11T05:36:45;3.92;;;0.93;;
73100;SDS011;61288;53.446;-2.266;2024-01-11T05:39:10;6.95;;;1.48;;
73100;SDS011;61288;53.446;-2.266;2024-01-11T05:41:36;4.75;;;1.73;;
73100;SDS011;61288;53.446;-2.266;2024-01-11T05:44:01;3.28;;;1.15;;
73100;SDS011;61288;53.446;-2.266;2024-01-11T05:46:27;5.88;;;1.27;;
73100;SDS011;61288;53.446;-2.266;2024-01-11T05:48:52;4.82;;;1.52;;
73100;SDS011;61288;53.446;-2.266;2024-01-11T05:51:18;4.72;;;1.10;;
73100;SDS011;61288;53.446;-2.266;2024-01-11T05:53:43;5.75;;;1.30;;
73100;SDS011;61288;53.446;-2.266;2024-01-11T05:56:09;4.47;;;1.20;;
73100;SDS011;61288;53.446;-2.266;2024-01-11T05:58:35;4.70;;;1.10;;
73100;SDS011;61288;53.446;-2.266;2024-01-11T06:01:04;4.88;;;1.00;;
73100;SDS011;61288;53.446;-2.266;2024-01-11T06:03:30;5.40;;;1.25;;
73100;SDS011;61288;53.446;-2.266;2024-01-11T06:05:59;4.40;;;1.10;;
73100;SDS011;61288;53.446;-2.266;2024-01-11T06:08:27;5.40;;;1.08;;
73100;SDS011;61288;53.446;-2.266;2024-01-11T06:10:54;5.10;;;1.27;;
73100;SDS011;61288;53.446;-2.266;2024-01-11T06:13:19;4.15;;;1.17;;
73100;SDS011;61288;53.446;-2.266;2024-01-11T06:15:45;4.25;;;1.08;;
73100;SDS011;61288;53.446;-2.266;2024-01-11T06:18:11;4.30;;;1.23;;
73100;SDS011;61288;53.446;-2.266;2024-01-11T06:20:37;3.08;;;1.00;;
73100;SDS011;61288;53.446;-2.266;2024-01-11T06:23:03;3.55;;;1.33;;
73100;SDS011;61288;53.446;-2.266;2024-01-11T06:25:29;5.55;;;1.20;;
73100;SDS011;61288;53.446;-2.266;2024-01-11T06:27:54;5.38;;;1.20;;
73100;SDS011;61288;53.446;-2.266;2024-01-11T06:30:20;3.00;;;1.20;;
73100;SDS011;61288;53.446;-2.266;2024-01-11T06:32:46;2.22;;;1.02;;
73100;SDS011;61288;53.446;-2.266;2024-01-11T06:35:12;4.70;;;1.20;;
73100;SDS011;61288;53.446;-2.266;2024-01-11T06:37:37;2.47;;;0.90;;
73100;SDS011;61288;53.446;-2.266;2024-01-11T06:40:03;4.90;;;1.40;;
73100;SDS011;61288;53.446;-2.266;2024-01-11T06:42:32;6.22;;;1.95;;
73100;SDS011;61288;53.446;-2.266;2024-01-11T06:44:58;5.03;;;1.20;;
73100;SDS011;61288;53.446;-2.266;2024-01-11T06:47:24;2.53;;;1.10;;
73100;SDS011;61288;53.446;-2.266;2024-01-11T06:49:50;2.00;;;0.85;;
73100;SDS011;61288;53.446;-2.266;2024-01-11T06:52:15;4.55;;;1.33;;
73100;SDS011;61288;53.446;-2.266;2024-01-11T06:54:41;6.13;;;1.00;;
73100;SDS011;61288;53.446;-2.266;2024-01-11T06:57:07;4.68;;;1.20;;
73100;SDS011;61288;53.446;-2.266;2024-01-11T06:59:32;2.38;;;1.02;;
73100;SDS011;61288;53.446;-2.266;2024-01-11T07:01:59;4.28;;;1.40;;
73100;SDS011;61288;53.446;-2.266;2024-01-11T07:04:26;5.97;;;1.35;;
73100;SDS011;61288;53.446;-2.266;2024-01-11T07:06:51;6.65;;;1.38;;
73100;SDS011;61288;53.446;-2.266;2024-01-11T07:09:17;7.22;;;1.63;;
73100;SDS011;61288;53.446;-2.266;2024-01-11T07:11:43;4.75;;;1.08;;
73100;SDS011;61288;53.446;-2.266;2024-01-11T07:14:09;3.80;;;1.30;;
73100;SDS011;61288;53.446;-2.266;2024-01-11T07:16:35;7.15;;;1.38;;
73100;SDS011;61288;53.446;-2.266;2024-01-11T07:19:01;5.40;;;1.40;;
73100;SDS011;61288;53.446;-2.266;2024-01-11T07:21:26;3.80;;;1.40;;
73100;SDS011;61288;53.446;-2.266;2024-01-11T07:23:56;5.40;;;1.50;;
73100;SDS011;61288;53.446;-2.266;2024-01-11T07:26:25;5.30;;;1.45;;
73100;SDS011;61288;53.446;-2.266;2024-01-11T07:28:53;5.05;;;1.42;;
73100;SDS011;61288;53.446;-2.266;2024-01-11T07:31:21;5.72;;;1.70;;
73100;SDS011;61288;53.446;-2.266;2024-01-11T07:33:47;5.45;;;1.50;;
73100;SDS011;61288;53.446;-2.266;2024-01-11T07:36:12;4.53;;;1.55;;
73100;SDS011;61288;53.446;-2.266;2024-01-11T07:38:38;4.18;;;1.40;;
73100;SDS011;61288;53.446;-2.266;2024-01-11T07:41:04;5.53;;;1.52;;
73100;SDS011;61288;53.446;-2.266;2024-01-11T07:43:29;5.38;;;1.30;;
73100;SDS011;61288;53.446;-2.266;2024-01-11T07:45:57;4.28;;;1.30;;
73100;SDS011;61288;53.446;-2.266;2024-01-11T07:48:22;4.43;;;1.35;;
73100;SDS011;61288;53.446;-2.266;2024-01-11T07:50:49;4.53;;;1.40;;
73100;SDS011;61288;53.446;-2.266;2024-01-11T07:53:14;4.90;;;1.50;;
73100;SDS011;61288;53.446;-2.266;2024-01-11T07:55:40;4.80;;;1.70;;
73100;SDS011;61288;53.446;-2.266;2024-01-11T07:58:06;3.65;;;1.38;;
73100;SDS011;61288;53.446;-2.266;2024-01-11T08:00:32;8.15;;;1.60;;
73100;SDS011;61288;53.446;-2.266;2024-01-11T08:02:58;6.57;;;1.92;;
73100;SDS011;61288;53.446;-2.266;2024-01-11T08:05:24;5.80;;;2.00;;
73100;SDS011;61288;53.446;-2.266;2024-01-11T08:07:50;6.35;;;2.35;;
73100;SDS011;61288;53.446;-2.266;2024-01-11T08:10:16;6.28;;;1.92;;
73100;SDS011;61288;53.446;-2.266;2024-01-11T08:12:41;7.22;;;2.17;;
73100;SDS011;61288;53.446;-2.266;2024-01-11T08:15:07;8.93;;;2.42;;
73100;SDS011;61288;53.446;-2.266;2024-01-11T08:17:38;7.82;;;2.22;;
73100;SDS011;61288;53.446;-2.266;2024-01-11T08:20:05;6.88;;;2.00;;
73100;SDS011;61288;53.446;-2.266;2024-01-11T08:22:33;7.97;;;2.50;;
73100;SDS011;61288;53.446;-2.266;2024-01-11T08:25:01;7.18;;;2.33;;
73100;SDS011;61288;53.446;-2.266;2024-01-11T08:27:29;9.50;;;2.40;;
73100;SDS011;61288;53.446;-2.266;2024-01-11T08:29:56;11.75;;;2.28;;
73100;SDS011;61288;53.446;-2.266;2024-01-11T08:32:22;6.95;;;2.10;;
73100;SDS011;61288;53.446;-2.266;2024-01-11T08:34:48;5.05;;;2.03;;
73100;SDS011;61288;53.446;-2.266;2024-01-11T08:37:13;5.63;;;2.17;;
73100;SDS011;61288;53.446;-2.266;2024-01-11T08:39:39;7.70;;;2.60;;
73100;SDS011;61288;53.446;-2.266;2024-01-11T08:42:05;8.27;;;2.45;;
73100;SDS011;61288;53.446;-2.266;2024-01-11T08:44:31;6.65;;;2.28;;
73100;SDS011;61288;53.446;-2.266;2024-01-11T08:46:57;4.40;;;1.55;;
73100;SDS011;61288;53.446;-2.266;2024-01-11T08:49:23;3.85;;;1.67;;
73100;SDS011;61288;53.446;-2.266;2024-01-11T08:51:49;5.30;;;1.95;;
73100;SDS011;61288;53.446;-2.266;2024-01-11T08:54:15;5.40;;;1.40;;
73100;SDS011;61288;53.446;-2.266;2024-01-11T08:56:41;7.15;;;1.50;;
73100;SDS011;61288;53.446;-2.266;2024-01-11T08:59:08;5.03;;;1.33;;
73100;SDS011;61288;53.446;-2.266;2024-01-11T09:01:37;3.83;;;1.20;;
73100;SDS011;61288;53.446;-2.266;2024-01-11T09:04:04;2.53;;;1.20;;
73100;SDS011;61288;53.446;-2.266;2024-01-11T09:06:31;4.22;;;1.30;;
73100;SDS011;61288;53.446;-2.266;2024-01-11T09:08:58;3.05;;;1.20;;
73100;SDS011;61288;53.446;-2.266;2024-01-11T09:11:25;2.38;;;1.40;;
73100;SDS011;61288;53.446;-2.266;2024-01-11T09:13:51;3.50;;;1.17;;
73100;SDS011;61288;53.446;-2.266;2024-01-11T09:16:17;2.55;;;1.33;;
73100;SDS011;61288;53.446;-2.266;2024-01-11T09:18:43;7.43;;;1.50;;
73100;SDS011;61288;53.446;-2.266;2024-01-11T09:21:10;3.95;;;1.40;;
73100;SDS011;61288;53.446;-2.266;2024-01-11T09:23:37;5.65;;;1.30;;
73100;SDS011;61288;53.446;-2.266;2024-01-11T09:26:03;4.65;;;1.40;;
73100;SDS011;61288;53.446;-2.266;2024-01-11T09:28:28;4.35;;;1.48;;
73100;SDS011;61288;53.446;-2.266;2024-01-11T09:30:54;5.20;;;1.27;;
73100;SDS011;61288;53.446;-2.266;2024-01-11T09:33:24;2.90;;;1.27;;
73100;SDS011;61288;53.446;-2.266;2024-01-11T09:35:51;1.63;;;1.00;;
73100;SDS011;61288;53.446;-2.266;2024-01-11T09:38:16;4.78;;;1.42;;
73100;SDS011;61288;53.446;-2.266;2024-01-11T09:40:41;2.40;;;1.23;;
73100;SDS011;61288;53.446;-2.266;2024-01-11T09:43:07;3.47;;;1.10;;
73100;SDS011;61288;53.446;-2.266;2024-01-11T09:45:36;2.90;;;1.77;;
73100;SDS011;61288;53.446;-2.266;2024-01-11T09:48:03;2.92;;;1.10;;
73100;SDS011;61288;53.446;-2.266;2024-01-11T09:50:31;4.47;;;1.02;;
73100;SDS011;61288;53.446;-2.266;2024-01-11T09:52:57;2.03;;;0.70;;
73100;SDS011;61288;53.446;-2.266;2024-01-11T09:55:28;4.03;;;1.00;;
73100;SDS011;61288;53.446;-2.266;2024-01-11T09:57:55;2.90;;;1.00;;
73100;SDS011;61288;53.446;-2.266;2024-01-11T10:00:26;6.28;;;1.00;;
73100;SDS011;61288;53.446;-2.266;2024-01-11T10:02:53;4.22;;;1.20;;
73100;SDS011;61288;53.446;-2.266;2024-01-11T10:05:19;2.95;;;0.88;;
73100;SDS011;61288;53.446;-2.266;2024-01-11T10:07:45;5.22;;;0.85;;
73100;SDS011;61288;53.446;-2.266;2024-01-11T10:10:14;2.53;;;0.90;;
73100;SDS011;61288;53.446;-2.266;2024-01-11T10:12:40;8.05;;;1.30;;
73100;SDS011;61288;53.446;-2.266;2024-01-11T10:15:07;1.60;;;0.77;;
73100;SDS011;61288;53.446;-2.266;2024-01-11T10:17:42;3.88;;;1.10;;
73100;SDS011;61288;53.446;-2.266;2024-01-11T10:20:10;5.32;;;1.20;;
73100;SDS011;61288;53.446;-2.266;2024-01-11T10:22:36;6.25;;;1.48;;
73100;SDS011;61288;53.446;-2.266;2024-01-11T10:25:08;4.68;;;1.15;;
73100;SDS011;61288;53.446;-2.266;2024-01-11T10:27:42;6.75;;;1.20;;
73100;SDS011;61288;53.446;-2.266;2024-01-11T10:30:11;5.55;;;1.30;;
73100;SDS011;61288;53.446;-2.266;2024-01-11T10:32:40;6.75;;;1.15;;
73100;SDS011;61288;53.446;-2.266;2024-01-11T10:35:06;3.72;;;0.80;;
73100;SDS011;61288;53.446;-2.266;2024-01-11T10:37:32;1.90;;;0.95;;
73100;SDS011;61288;53.446;-2.266;2024-01-11T10:39:58;3.03;;;0.90;;
73100;SDS011;61288;53.446;-2.266;2024-01-11T10:42:34;3.13;;;1.52;;
73100;SDS011;61288;53.446;-2.266;2024-01-11T10:45:02;5.10;;;0.93;;
73100;SDS011;61288;53.446;-2.266;2024-01-11T10:47:32;4.75;;;0.90;;
73100;SDS011;61288;53.446;-2.266;2024-01-11T10:50:01;7.40;;;1.25;;
73100;SDS011;61288;53.446;-2.266;2024-01-11T10:52:38;5.05;;;1.10;;
73100;SDS011;61288;53.446;-2.266;2024-01-11T10:55:11;7.38;;;1.40;;
73100;SDS011;61288;53.446;-2.266;2024-01-11T10:57:37;5.45;;;1.20;;
73100;SDS011;61288;53.446;-2.266;2024-01-11T11:00:04;4.03;;;1.20;;
73100;SDS011;61288;53.446;-2.266;2024-01-11T11:02:31;8.30;;;1.30;;
73100;SDS011;61288;53.446;-2.266;2024-01-11T11:04:59;8.85;;;1.42;;
73100;SDS011;61288;53.446;-2.266;2024-01-11T11:07:30;4.57;;;1.20;;
73100;SDS011;61288;53.446;-2.266;2024-01-11T11:09:57;5.03;;;1.20;;
73100;SDS011;61288;53.446;-2.266;2024-01-11T11:12:24;5.32;;;2.03;;
73100;SDS011;61288;53.446;-2.266;2024-01-11T11:14:50;8.02;;;1.40;;
73100;SDS011;61288;53.446;-2.266;2024-01-11T11:17:18;6.70;;;1.30;;
73100;SDS011;61288;53.446;-2.266;2024-01-11T11:19:44;9.20;;;1.50;;
73100;SDS011;61288;53.446;-2.266;2024-01-11T11:22:12;6.18;;;1.38;;
73100;SDS011;61288;53.446;-2.266;2024-01-11T11:24:40;5.93;;;1.38;;
73100;SDS011;61288;53.446;-2.266;2024-01-11T11:27:05;4.68;;;1.90;;
73100;SDS011;61288;53.446;-2.266;2024-01-11T11:29:32;6.20;;;1.40;;
73100;SDS011;61288;53.446;-2.266;2024-01-11T11:31:57;6.40;;;1.50;;
73100;SDS011;61288;53.446;-2.266;2024-01-11T11:34:40;5.63;;;1.48;;
73100;SDS011;61288;53.446;-2.266;2024-01-11T11:37:09;6.53;;;1.10;;
73100;SDS011;61288;53.446;-2.266;2024-01-11T11:39:35;5.22;;;1.13;;
73100;SDS011;61288;53.446;-2.266;2024-01-11T11:42:01;3.75;;;1.00;;
73100;SDS011;61288;53.446;-2.266;2024-01-11T11:44:29;5.47;;;1.15;;
73100;SDS011;61288;53.446;-2.266;2024-01-11T11:47:16;8.60;;;1.33;;
73100;SDS011;61288;53.446;-2.266;2024-01-11T11:49:57;7.60;;;1.70;;
73100;SDS011;61288;53.446;-2.266;2024-01-11T11:52:26;6.53;;;1.15;;
73100;SDS011;61288;53.446;-2.266;2024-01-11T11:54:51;5.25;;;1.40;;
73100;SDS011;61288;53.446;-2.266;2024-01-11T11:57:18;3.20;;;1.00;;
73100;SDS011;61288;53.446;-2.266;2024-01-11T11:59:45;6.38;;;1.10;;
73100;SDS011;61288;53.446;-2.266;2024-01-11T12:02:15;6.97;;;1.20;;
73100;SDS011;61288;53.446;-2.266;2024-01-11T12:04:48;4.93;;;1.10;;
73100;SDS011;61288;53.446;-2.266;2024-01-11T12:07:15;7.18;;;1.42;;
73100;SDS011;61288;53.446;-2.266;2024-01-11T12:09:41;4.05;;;1.17;;
73100;SDS011;61288;53.446;-2.266;2024-01-11T12:12:07;5.70;;;1.25;;
73100;SDS011;61288;53.446;-2.266;2024-01-11T12:14:33;5.25;;;1.23;;
73100;SDS011;61288;53.446;-2.266;2024-01-11T12:17:00;4.57;;;1.20;;
73100;SDS011;61288;53.446;-2.266;2024-01-11T12:19:25;4.07;;;1.13;;
73100;SDS011;61288;53.446;-2.266;2024-01-11T12:21:52;3.63;;;1.33;;
73100;SDS011;61288;53.446;-2.266;2024-01-11T12:24:17;12.30;;;1.50;;
73100;SDS011;61288;53.446;-2.266;2024-01-11T12:26:44;8.63;;;1.15;;
73100;SDS011;61288;53.446;-2.266;2024-01-11T12:29:11;3.63;;;1.10;;
73100;SDS011;61288;53.446;-2.266;2024-01-11T12:31:38;5.38;;;1.38;;
73100;SDS011;61288;53.446;-2.266;2024-01-11T12:34:03;7.53;;;1.40;;
73100;SDS011;61288;53.446;-2.266;2024-01-11T12:36:31;10.25;;;1.40;;
73100;SDS011;61288;53.446;-2.266;2024-01-11T12:38:58;6.18;;;1.42;;
73100;SDS011;61288;53.446;-2.266;2024-01-11T12:41:23;6.25;;;1.55;;
73100;SDS011;61288;53.446;-2.266;2024-01-11T12:43:49;6.95;;;1.65;;
73100;SDS011;61288;53.446;-2.266;2024-01-11T12:46:15;9.25;;;1.60;;
73100;SDS011;61288;53.446;-2.266;2024-01-11T12:48:42;5.28;;;1.63;;
73100;SDS011;61288;53.446;-2.266;2024-01-11T12:51:07;5.20;;;1.38;;
73100;SDS011;61288;53.446;-2.266;2024-01-11T12:53:34;7.35;;;1.55;;
73100;SDS011;61288;53.446;-2.266;2024-01-11T12:56:05;3.83;;;1.35;;
73100;SDS011;61288;53.446;-2.266;2024-01-11T12:58:35;7.65;;;1.58;;
73100;SDS011;61288;53.446;-2.266;2024-01-11T13:01:03;6.40;;;1.40;;
73100;SDS011;61288;53.446;-2.266;2024-01-11T13:03:29;9.00;;;1.60;;
73100;SDS011;61288;53.446;-2.266;2024-01-11T13:05:56;6.47;;;1.48;;
73100;SDS011;61288;53.446;-2.266;2024-01-11T13:08:25;9.98;;;1.80;;
73100;SDS011;61288;53.446;-2.266;2024-01-11T13:10:52;10.82;;;2.05;;
73100;SDS011;61288;53.446;-2.266;2024-01-11T13:13:18;6.28;;;1.70;;
73100;SDS011;61288;53.446;-2.266;2024-01-11T13:15:45;7.20;;;1.60;;
73100;SDS011;61288;53.446;-2.266;2024-01-11T13:18:11;8.35;;;1.92;;
73100;SDS011;61288;53.446;-2.266;2024-01-11T13:20:36;11.15;;;2.10;;
73100;SDS011;61288;53.446;-2.266;2024-01-11T13:23:15;5.95;;;1.65;;
73100;SDS011;61288;53.446;-2.266;2024-01-11T13:25:45;8.52;;;1.73;;
73100;SDS011;61288;53.446;-2.266;2024-01-11T13:28:11;10.85;;;2.10;;
73100;SDS011;61288;53.446;-2.266;2024-01-11T13:30:40;8.18;;;2.10;;
73100;SDS011;61288;53.446;-2.266;2024-01-11T13:33:07;10.13;;;1.98;;
73100;SDS011;61288;53.446;-2.266;2024-01-11T13:35:36;12.50;;;2.70;;
73100;SDS011;61288;53.446;-2.266;2024-01-11T13:38:03;11.43;;;2.03;;
73100;SDS011;61288;53.446;-2.266;2024-01-11T13:40:31;9.07;;;1.85;;
73100;SDS011;61288;53.446;-2.266;2024-01-11T13:42:58;10.57;;;2.25;;
73100;SDS011;61288;53.446;-2.266;2024-01-11T13:45:24;8.80;;;1.70;;
73100;SDS011;61288;53.446;-2.266;2024-01-11T13:47:52;18.10;;;2.05;;
73100;SDS011;61288;53.446;-2.266;2024-01-11T13:50:23;7.13;;;1.80;;
73100;SDS011;61288;53.446;-2.266;2024-01-11T13:52:49;9.20;;;1.92;;
73100;SDS011;61288;53.446;-2.266;2024-01-11T13:55:15;10.70;;;1.92;;
73100;SDS011;61288;53.446;-2.266;2024-01-11T13:57:42;11.07;;;1.70;;
73100;SDS011;61288;53.446;-2.266;2024-01-11T14:00:09;9.18;;;2.05;;
73100;SDS011;61288;53.446;-2.266;2024-01-11T14:02:36;8.50;;;2.03;;
73100;SDS011;61288;53.446;-2.266;2024-01-11T14:05:04;7.95;;;1.98;;
73100;SDS011;61288;53.446;-2.266;2024-01-11T14:07:32;10.00;;;1.40;;
73100;SDS011;61288;53.446;-2.266;2024-01-11T14:09:57;10.38;;;1.63;;
73100;SDS011;61288;53.446;-2.266;2024-01-11T14:12:23;10.68;;;1.90;;
73100;SDS011;61288;53.446;-2.266;2024-01-11T14:14:48;11.70;;;2.50;;
73100;SDS011;61288;53.446;-2.266;2024-01-11T14:17:14;11.10;;;1.90;;
73100;SDS011;61288;53.446;-2.266;2024-01-11T14:19:39;10.73;;;1.77;;
73100;SDS011;61288;53.446;-2.266;2024-01-11T14:22:05;9.63;;;2.10;;
73100;SDS011;61288;53.446;-2.266;2024-01-11T14:24:30;10.88;;;1.67;;
73100;SDS011;61288;53.446;-2.266;2024-01-11T14:26:56;9.73;;;1.58;;
73100;SDS011;61288;53.446;-2.266;2024-01-11T14:29:21;11.95;;;1.50;;
73100;SDS011;61288;53.446;-2.266;2024-01-11T14:31:47;9.13;;;1.83;;
73100;SDS011;61288;53.446;-2.266;2024-01-11T14:34:13;10.20;;;1.70;;
73100;SDS011;61288;53.446;-2.266;2024-01-11T14:36:38;9.93;;;2.13;;